This demonstration page uses our WeatherBlox Daily Observations layout. Learn more.

Left ArrowRight Arrow

Hourly Observations for September 5, 2020

Temp ( °F °C ) Dew Point ( °F °C ) Humidity (%) Winds ( mph kmh ) Pressure ( in mb ) Visibility ( mi km ) Precip ( " mm )
12:54 am 00:54 Clear 58 14.4 52 11.1 81 81 Calm 30.2 1023 9 14.48406 0 0
1:54 am 01:54 Clear 58 14.4 52 11.1 81 81 Calm 30.21 1023 9 14.48406 0 0
2:54 am 02:54 Clear 59 15 52 11.1 78 78 Calm 30.2 1023 9 14.48406 0 0
3:54 am 03:54 Clear 59 15 53 11.7 81 81 Calm 30.2 1023 9 14.48406 0 0
4:54 am 04:54 Clear 54 12.2 49 9.4 83 83 Calm 30.2 1023 10 16.0934 0 0
5:54 am 05:54 Clear 53 11.7 49 9.4 86 86 Calm 30.2 1023 10 16.0934 0 0
6:54 am 06:54 Clear 53 11.7 49 9.4 86 86 NNW 5 7 30.21 1023 9 14.48406 0 0
7:54 am 07:54 Sunny 58 14.4 53 11.7 84 84 NNW 3 6 30.2 1023 8 12.87472 0 0
8:54 am 08:54 Sunny 65 18.3 56 13.3 73 73 Calm 30.21 1023 9 14.48406 0 0
9:54 am 09:54 Sunny 73 22.8 61 16.1 66 66 SSW 5 7 30.2 1023 9 14.48406 0 0
10:54 am 10:54 Sunny 82 27.8 65 18.3 56 56 VRB 3 6 30.2 1023 9 14.48406 0 0
11:54 am 11:54 Sunny 89 31.7 67 19.4 48 48 S 8 13 30.18 1022 9 14.48406 0 0
12:54 pm 12:54 Sunny 92 33.3 66 18.9 43 43 SSW 12 19 30.16 1021 9 14.48406 0 0
1:54 pm 13:54 Mostly Sunny 94 34.4 65 18.3 38 38 SSW 16 26 30.13 1020 9 14.48406 0 0
2:54 pm 14:54 Sunny 96 35.6 64 17.8 35 35 SSW 15 24 30.1 1019 9 14.48406 0 0
3:54 pm 15:54 Sunny 96 35.6 62 16.7 32 32 S 17 28 30.07 1018 9 14.48406 0 0
4:54 pm 16:54 Sunny 96 35.6 64 17.8 35 35 SSW 16 26 30.06 1018 9 14.48406 0 0
5:54 pm 17:54 Sunny 94 34.4 64 17.8 37 37 SSW 12 19 30.04 1017 9 14.48406 0 0
6:54 pm 18:54 Sunny 92 33.3 65 18.3 41 41 S 12 19 30.02 1017 9 14.48406 0 0
7:54 pm 19:54 Clear 87 30.6 66 18.9 50 50 S 12 19 30.01 1016 9 14.48406 0 0
8:54 pm 20:54 Clear 82 27.8 66 18.9 58 58 S 12 19 30.01 1016 10 16.0934 0 0
9:54 pm 21:54 Clear 80 26.7 65 18.3 60 60 S 12 19 30.01 1016 10 16.0934 0 0
10:54 pm 22:54 Clear 81 27.2 64 17.8 57 57 S 16 26 29.98 1015 10 16.0934 0 0
11:54 pm 23:54 Clear 81 27.2 63 17.2 54 54 S 15 24 29.96 1014 10 16.0934 0 0

Powered by AerisWeather